Terminal Aerodrome Forecast
Issued by NWS

Current Version | Previous Version | Text Only | Print | Product List | Glossary On
Versions: 1 2 3 4 5 6 7 8 9 10 11 12 13 14
000
FTUS46 KPDT 212339
TAFALW
TAF
KALW 212339Z 2200/2224 26010KT P6SM FEW090 SCT250
     FM220600 15007KT P6SM BKN250
     FM221200 16005KT P6SM BKN150 OVC200
     FM221700 22006KT P6SM SCT130 BKN180=

USA.gov is the U.S. government's official web portal to all federal, state and local government web resources and services.